Time;durP1;ratioP1;P1;durP2;ratioP2;P2;SDS_P1;SDS_P2;PMS_P1;PMS_P2;Temp;Humidity;BMP_temperature;BMP_pressure;BME280_temperature;BME280_humidity;BME280_pressure;Samples;Min_cycle;Max_cycle;Signal;HPM_P1;HPM_P2
2023/01/23 00:00:10;;;;;;;2.00;1.90;;;;;;;-0.07;100.00;100834.78;6093390;23;20328;-88
2023/01/23 00:02:37;;;;;;;3.08;2.88;;;;;;;-0.10;100.00;100821.84;6093259;23;20117;-87
2023/01/23 00:05:03;;;;;;;2.10;1.27;;;;;;;-0.08;100.00;100838.69;6067593;23;20018;-87
2023/01/23 00:07:28;;;;;;;2.33;2.13;;;;;;;-0.18;100.00;100812.69;6066554;23;20046;-87
2023/01/23 00:09:54;;;;;;;0.90;0.90;;;;;;;-0.14;100.00;100820.97;6092497;23;20046;-87
2023/01/23 00:12:20;;;;;;;0.98;0.98;;;;;;;-0.08;100.00;100820.38;6092924;23;20495;-87
2023/01/23 00:14:45;;;;;;;1.58;1.48;;;;;;;-0.07;100.00;100813.78;6093208;23;20043;-87
2023/01/23 00:17:11;;;;;;;3.75;1.05;;;;;;;-0.05;100.00;100816.97;6094219;23;20009;-87
2023/01/23 00:19:36;;;;;;;3.40;2.95;;;;;;;-0.08;100.00;100827.78;6094139;23;20065;-87
2023/01/23 00:22:02;;;;;;;3.55;2.90;;;;;;;-0.10;100.00;100819.94;6092765;23;20072;-87
2023/01/23 00:24:27;;;;;;;0.98;0.95;;;;;;;-0.07;100.00;100819.22;6094708;23;20087;-87
2023/01/23 00:26:53;;;;;;;4.28;2.85;;;;;;;-0.18;100.00;100790.06;6093918;23;20018;-87
2023/01/23 00:29:19;;;;;;;5.07;1.70;;;;;;;-0.15;100.00;100792.91;6093855;23;20006;-87
2023/01/23 00:31:44;;;;;;;0.80;0.80;;;;;;;-0.12;100.00;100805.84;6094714;23;20025;-87
2023/01/23 00:34:12;;;;;;;1.50;1.40;;;;;;;-0.10;100.00;100811.75;6067673;23;20018;-87
2023/01/23 00:36:41;;;;;;;0.52;0.52;;;;;;;-0.04;100.00;100807.63;6066949;23;20029;-87
2023/01/23 00:39:20;;;;;;;1.40;1.30;;;;;;;-0.11;100.00;100806.63;6067883;23;20081;-88
2023/01/23 00:41:47;;;;;;;2.28;1.85;;;;;;;-0.07;100.00;100797.41;6067508;23;20018;-88
2023/01/23 00:44:13;;;;;;;1.58;1.48;;;;;;;-0.09;100.00;100785.28;6066866;23;20014;-88
2023/01/23 00:46:39;;;;;;;3.85;2.63;;;;;;;-0.10;100.00;100765.38;6091905;23;20062;-89
2023/01/23 00:49:04;;;;;;;2.38;1.67;;;;;;;-0.03;100.00;100770.22;6095510;23;20018;-87
2023/01/23 00:51:30;;;;;;;4.20;3.83;;;;;;;-0.04;100.00;100795.94;6068592;23;20006;-88
2023/01/23 00:53:56;;;;;;;0.93;0.93;;;;;;;-0.06;100.00;100782.63;6067811;23;20010;-88
2023/01/23 00:56:21;;;;;;;2.30;2.10;;;;;;;-0.10;100.00;100775.50;6068339;23;20021;-88
2023/01/23 00:58:47;;;;;;;0.85;0.85;;;;;;;-0.05;100.00;100786.97;6045027;23;20078;-88
2023/01/23 01:01:14;;;;;;;0.95;0.95;;;;;;;-0.09;100.00;100780.63;6066219;23;20105;-88
2023/01/23 01:03:40;;;;;;;1.17;1.08;;;;;;;-0.11;100.00;100766.53;6068641;23;20005;-88
2023/01/23 01:06:06;;;;;;;1.98;1.02;;;;;;;-0.03;100.00;100765.56;6091183;23;20038;-88
2023/01/23 01:08:32;;;;;;;3.72;3.03;;;;;;;-0.08;100.00;100762.31;6064999;23;20110;-88
2023/01/23 01:10:58;;;;;;;2.05;1.85;;;;;;;-0.08;100.00;100760.38;6092538;23;20014;-88
2023/01/23 01:13:24;;;;;;;0.63;0.63;;;;;;;-0.01;100.00;100779.66;6065096;23;20077;-89
2023/01/23 01:15:50;;;;;;;1.75;1.65;;;;;;;-0.04;100.00;100774.88;6089561;23;20033;-90
2023/01/23 01:18:17;;;;;;;2.75;2.58;;;;;;;-0.05;100.00;100759.69;6091703;23;20023;-88
2023/01/23 01:20:43;;;;;;;5.82;2.80;;;;;;;0.05;100.00;100743.94;6043672;23;20012;-88
2023/01/23 01:23:09;;;;;;;0.85;0.85;;;;;;;-0.07;100.00;100753.78;6069809;23;20019;-87
2023/01/23 01:25:34;;;;;;;1.52;1.42;;;;;;;-0.07;100.00;100745.59;6045252;23;20443;-89
2023/01/23 01:28:00;;;;;;;1.83;1.70;;;;;;;-0.10;100.00;100732.66;6095369;23;20014;-89
2023/01/23 01:30:26;;;;;;;5.30;4.10;;;;;;;-0.05;100.00;100720.72;6093591;23;20014;-88
2023/01/23 01:32:53;;;;;;;1.52;1.48;;;;;;;0.01;100.00;100738.38;6069009;23;20090;-89
2023/01/23 01:35:18;;;;;;;3.80;3.47;;;;;;;-0.09;100.00;100720.63;6068761;23;20255;-88
2023/01/23 01:37:44;;;;;;;2.50;2.10;;;;;;;0.00;100.00;100726.69;6069768;23;20262;-89
2023/01/23 01:40:20;;;;;;;2.33;2.00;;;;;;;-0.03;100.00;100721.94;6069313;23;20003;-89
2023/01/23 01:43:01;;;;;;;3.20;2.83;;;;;;;-0.05;100.00;100724.25;6094148;23;20010;-88
2023/01/23 01:45:55;;;;;;;1.27;1.08;;;;;;;0.03;100.00;100730.66;6068184;23;20030;-89
2023/01/23 01:48:24;;;;;;;0.30;0.30;;;;;;;-0.08;100.00;100710.50;6069152;23;20432;-88
2023/01/23 01:50:50;;;;;;;3.22;2.92;;;;;;;0.05;100.00;100738.47;6069143;23;20015;-88
2023/01/23 01:53:16;;;;;;;3.40;3.13;;;;;;;0.04;100.00;100731.47;6069116;23;20022;-89
2023/01/23 01:55:42;;;;;;;0.93;0.90;;;;;;;0.06;100.00;100729.16;6069451;23;20018;-88
2023/01/23 01:58:08;;;;;;;1.90;1.80;;;;;;;0.07;100.00;100731.56;6045110;23;20018;-89
2023/01/23 02:00:33;;;;;;;2.70;2.45;;;;;;;0.07;100.00;100722.56;6069111;23;20755;-89
2023/01/23 02:03:00;;;;;;;4.50;2.85;;;;;;;0.07;100.00;100714.41;6068643;23;20470;-89
2023/01/23 02:05:29;;;;;;;1.58;1.48;;;;;;;0.05;100.00;100708.47;6044215;23;20462;-88
2023/01/23 02:07:56;;;;;;;3.47;2.50;;;;;;;0.14;100.00;100725.47;6069348;23;20021;-89
2023/01/23 02:10:22;;;;;;;1.85;1.48;;;;;;;0.15;100.00;100716.16;6069441;23;20014;-89
2023/01/23 02:12:50;;;;;;;1.35;1.25;;;;;;;0.16;100.00;100717.75;6068723;23;20006;-88
2023/01/23 02:15:17;;;;;;;5.10;4.60;;;;;;;0.04;100.00;100687.81;6043807;23;20010;-88
2023/01/23 02:17:43;;;;;;;0.35;0.35;;;;;;;0.14;100.00;100703.66;6045219;23;20085;-88
2023/01/23 02:20:21;;;;;;;3.53;2.13;;;;;;;0.16;100.00;100704.13;6068797;23;20518;-89
2023/01/23 02:22:57;;;;;;;2.15;1.95;;;;;;;0.18;100.00;100690.91;6044785;23;20102;-89
2023/01/23 02:25:43;;;;;;;0.90;0.88;;;;;;;0.09;100.00;100682.88;6069040;23;20006;-88
2023/01/23 02:28:15;;;;;;;8.02;2.75;;;;;;;0.16;100.00;100693.19;6068585;23;20018;-88
2023/01/23 02:30:45;;;;;;;3.38;2.25;;;;;;;0.10;100.00;100681.75;6068667;23;20025;-89
2023/01/23 02:33:21;;;;;;;2.10;2.00;;;;;;;0.15;100.00;100700.59;6068273;23;20453;-89
2023/01/23 02:35:48;;;;;;;1.25;1.20;;;;;;;0.17;100.00;100678.41;6068009;23;20022;-88
2023/01/23 02:38:16;;;;;;;3.42;3.17;;;;;;;0.19;100.00;100689.78;6067558;23;20014;-89
2023/01/23 02:40:42;;;;;;;1.52;1.50;;;;;;;0.12;100.00;100693.13;6045056;23;20023;-89
2023/01/23 02:43:13;;;;;;;2.03;1.92;;;;;;;0.18;100.00;100699.09;6068534;23;20002;-89
2023/01/23 02:45:44;;;;;;;;;;;;;;;0.17;100.00;100697.50;6069004;23;20021;-89
2023/01/23 02:48:11;;;;;;;2.47;2.28;;;;;;;0.19;100.00;100697.94;6068126;23;19924;-89
2023/01/23 02:50:37;;;;;;;1.50;1.45;;;;;;;0.12;100.00;100682.19;6044444;23;20010;-89
2023/01/23 02:53:05;;;;;;;3.90;2.95;;;;;;;0.17;100.00;100695.56;6068970;23;20018;-88
2023/01/23 02:55:32;;;;;;;0.80;0.80;;;;;;;-0.06;100.00;100651.75;6068150;23;20011;-89
2023/01/23 03:00:57;;;;;;;3.92;1.95;;;;;;;0.08;100.00;100673.13;6018220;23;20459;-90
2023/01/23 03:03:24;;;;;;;2.85;2.65;;;;;;;0.19;100.00;100678.84;6068007;23;20006;-88
2023/01/23 03:05:50;;;;;;;0.65;0.65;;;;;;;0.15;100.00;100677.97;6068557;23;20025;-89
2023/01/23 03:08:16;;;;;;;2.28;2.08;;;;;;;0.24;100.00;100703.94;6068461;23;20045;-89
2023/01/23 03:10:42;;;;;;;2.20;2.10;;;;;;;0.09;100.00;100663.78;6094662;23;20149;-90
2023/01/23 03:13:10;;;;;;;1.75;1.65;;;;;;;0.20;100.00;100702.28;6044429;23;20579;-89
2023/01/23 03:15:38;;;;;;;2.47;2.30;;;;;;;0.26;100.00;100717.22;6068431;23;20399;-90
2023/01/23 03:18:04;;;;;;;1.55;1.45;;;;;;;0.23;100.00;100717.94;6044672;23;20014;-91
2023/01/23 03:20:37;;;;;;;2.47;2.28;;;;;;;0.21;100.00;100717.47;6044452;23;20038;-89
2023/01/23 03:23:03;;;;;;;1.33;1.25;;;;;;;0.18;100.00;100726.38;6068943;23;20018;-89
2023/01/23 03:25:28;;;;;;;1.92;1.83;;;;;;;0.27;100.00;100735.19;6094263;23;20007;-89
2023/01/23 03:27:54;;;;;;;4.57;3.67;;;;;;;0.19;100.00;100738.88;6068669;23;20042;-90
2023/01/23 03:30:20;;;;;;;6.40;3.45;;;;;;;0.33;100.00;100752.88;6068016;23;20066;-90
2023/01/23 03:32:47;;;;;;;2.50;2.13;;;;;;;0.31;100.00;100742.31;6068688;23;20455;-89
2023/01/23 03:35:19;;;;;;;2.38;2.28;;;;;;;0.31;100.00;100744.25;6068231;23;20026;-89
2023/01/23 03:37:46;;;;;;;2.10;1.70;;;;;;;0.22;100.00;100727.25;6045888;23;20022;-89
2023/01/23 03:43:03;;;;;;;1.05;0.90;;;;;;;0.28;100.00;100723.13;6068626;23;20022;-90
2023/01/23 03:45:29;;;;;;;2.85;2.20;;;;;;;0.36;100.00;100722.16;6043592;23;20008;-89
2023/01/23 03:47:56;;;;;;;2.22;2.13;;;;;;;0.31;100.00;100715.03;6068474;23;20475;-90
2023/01/23 03:50:22;;;;;;;2.08;1.77;;;;;;;0.22;100.00;100708.94;6045219;23;20017;-90
2023/01/23 03:52:47;;;;;;;2.38;2.15;;;;;;;0.34;100.00;100721.72;6046246;23;20448;-90
2023/01/23 03:55:13;;;;;;;3.58;2.83;;;;;;;0.23;100.00;100698.84;6044569;23;20010;-90
2023/01/23 03:57:39;;;;;;;1.58;1.48;;;;;;;0.29;100.00;100705.59;6046675;23;20466;-90
2023/01/23 04:00:22;;;;;;;1.83;1.20;;;;;;;0.17;100.00;100686.59;6048491;23;20061;-90
2023/01/23 04:02:54;;;;;;;1.63;1.53;;;;;;;0.27;100.00;100708.69;6069996;23;20383;-90
2023/01/23 04:05:21;;;;;;;1.67;1.42;;;;;;;0.22;100.00;100689.06;6046019;23;20551;-90
2023/01/23 04:07:47;;;;;;;0.90;0.90;;;;;;;0.27;100.00;100691.53;6020442;23;20050;-90
2023/01/23 04:10:14;;;;;;;1.73;1.60;;;;;;;0.22;100.00;100689.06;6044699;23;20097;-90
2023/01/23 04:12:42;;;;;;;4.35;1.83;;;;;;;0.27;100.00;100702.44;6070431;23;20451;-90
2023/01/23 04:15:08;;;;;;;1.88;1.75;;;;;;;0.22;100.00;100683.59;6045036;23;20097;-90
2023/01/23 04:17:34;;;;;;;0.93;0.88;;;;;;;0.20;100.00;100688.63;6070194;23;20022;-90
2023/01/23 04:19:59;;;;;;;3.13;1.63;;;;;;;0.13;100.00;100683.78;6022499;23;20431;-89
2023/01/23 04:22:27;;;;;;;2.50;2.35;;;;;;;0.18;100.00;100688.97;6046083;23;20476;-91
2023/01/23 04:24:53;;;;;;;2.58;2.38;;;;;;;0.18;100.00;100699.09;6069580;23;20014;-90
2023/01/23 04:27:18;;;;;;;4.32;4.03;;;;;;;0.23;100.00;100704.28;6069909;23;20068;-90
2023/01/23 04:29:46;;;;;;;3.60;3.35;;;;;;;0.03;100.00;100680.78;6069254;23;20022;-91
2023/01/23 04:32:13;;;;;;;5.20;2.03;;;;;;;-0.02;100.00;100655.34;6069486;23;20041;-91
2023/01/23 04:34:43;;;;;;;1.63;1.50;;;;;;;0.30;100.00;100696.28;6047076;23;20006;-90
2023/01/23 04:37:09;;;;;;;1.75;1.65;;;;;;;0.21;100.00;100695.66;6045701;23;20466;-90
2023/01/23 04:39:35;;;;;;;1.75;1.70;;;;;;;0.21;100.00;100690.19;6095112;23;20089;-90
2023/01/23 04:42:00;;;;;;;5.13;2.35;;;;;;;0.14;100.00;100693.53;6069866;23;20010;-91
2023/01/23 04:44:37;;;;;;;6.65;2.90;;;;;;;0.27;100.00;100707.91;6069222;23;20034;-90
2023/01/23 04:47:25;;;;;;;1.55;1.45;;;;;;;0.32;100.00;100710.38;6063507;23;20986;-91
2023/01/23 04:49:51;;;;;;;2.25;2.15;;;;;;;0.24;100.00;100694.97;6045798;23;20102;-90
2023/01/23 04:52:17;;;;;;;2.97;2.78;;;;;;;0.34;100.00;100699.88;6022423;23;20084;-91
2023/01/23 04:54:51;;;;;;;1.80;1.70;;;;;;;0.34;100.00;100719.00;6093596;23;20105;-90
2023/01/23 04:57:17;;;;;;;3.22;2.88;;;;;;;0.34;100.00;100724.44;6069523;23;20454;-89
2023/01/23 04:59:43;;;;;;;3.58;3.30;;;;;;;0.16;100.00;100695.94;6067994;23;20391;-90
2023/01/23 05:02:08;;;;;;;1.10;1.10;;;;;;;0.33;100.00;100723.66;6069401;23;20114;-90
2023/01/23 05:04:39;;;;;;;4.15;1.38;;;;;;;0.29;100.00;100716.50;6069452;23;20016;-91
2023/01/23 05:07:06;;;;;;;0.68;0.60;;;;;;;0.24;100.00;100719.53;6045850;23;20038;-90
2023/01/23 05:09:39;;;;;;;2.20;2.10;;;;;;;0.28;100.00;100731.31;6023851;23;20018;-90
2023/01/23 05:12:05;;;;;;;3.13;2.92;;;;;;;0.27;100.00;100724.28;6069419;23;20086;-90
2023/01/23 05:14:33;;;;;;;2.40;2.30;;;;;;;0.23;100.00;100707.03;6022012;23;20483;-90
2023/01/23 05:16:59;;;;;;;3.53;3.30;;;;;;;0.20;100.00;100708.53;6069999;23;20021;-90
2023/01/23 05:19:30;;;;;;;1.40;1.30;;;;;;;0.15;100.00;100707.97;6024066;23;20101;-90
2023/01/23 05:22:00;;;;;;;0.77;0.77;;;;;;;0.28;100.00;100725.88;6069841;23;20051;-90
2023/01/23 05:24:25;;;;;;;3.65;2.80;;;;;;;0.19;100.00;100706.13;6045169;23;20044;-91
2023/01/23 05:26:53;;;;;;;5.28;4.82;;;;;;;0.18;100.00;100710.00;6023463;23;20065;-91
2023/01/23 05:29:19;;;;;;;1.42;1.33;;;;;;;0.19;100.00;100701.47;6020227;23;20018;-90
2023/01/23 05:31:59;;;;;;;3.42;3.15;;;;;;;0.16;100.00;100695.94;6047558;23;20121;-90
2023/01/23 05:34:37;;;;;;;2.58;2.38;;;;;;;0.26;100.00;100703.59;6079709;23;20026;-92
2023/01/23 05:37:06;;;;;;;2.67;2.47;;;;;;;0.22;100.00;100694.50;6068344;23;20014;-90
2023/01/23 05:39:36;;;;;;;2.53;2.33;;;;;;;0.23;100.00;100685.19;6022130;23;20033;-90
2023/01/23 05:42:02;;;;;;;1.50;1.48;;;;;;;0.16;100.00;100674.09;6044619;23;20101;-91
2023/01/23 05:44:46;;;;;;;1.92;1.83;;;;;;;0.27;100.00;100689.59;6071357;23;20069;-91
2023/01/23 05:47:23;;;;;;;1.90;1.80;;;;;;;0.23;100.00;100685.19;6043896;23;20046;-90
2023/01/23 05:49:49;;;;;;;6.90;6.05;;;;;;;0.23;100.00;100688.72;6020192;23;20022;-90
2023/01/23 05:52:15;;;;;;;2.65;2.45;;;;;;;0.25;100.00;100700.06;6092191;23;20073;-93
2023/01/23 05:54:42;;;;;;;3.53;3.22;;;;;;;0.22;100.00;100694.50;6043787;23;20018;-92
2023/01/23 05:57:08;;;;;;;4.90;2.28;;;;;;;0.17;100.00;100687.38;6020910;23;19998;-91
2023/01/23 05:59:33;;;;;;;4.47;1.92;;;;;;;0.33;100.00;100703.75;6043797;23;20022;-92
2023/01/23 06:02:28;;;;;;;3.22;2.83;;;;;;;0.34;100.00;100702.63;6072976;23;20464;-92
2023/01/23 06:05:29;;;;;;;4.43;2.83;;;;;;;0.31;100.00;100706.06;6034330;23;20127;-92
2023/01/23 06:08:00;;;;;;;2.92;1.60;;;;;;;0.38;100.00;100722.59;6046394;23;20090;-93
2023/01/23 06:10:25;;;;;;;2.35;2.25;;;;;;;0.11;100.00;100685.28;6042209;23;20533;-92
2023/01/23 06:12:51;;;;;;;3.92;3.42;;;;;;;0.21;100.00;100699.16;6041087;23;20354;-93
2023/01/23 06:15:17;;;;;;;2.90;0.95;;;;;;;0.26;100.00;100706.31;6066509;23;20015;-92
2023/01/23 06:17:44;;;;;;;1.23;1.17;;;;;;;0.34;100.00;100713.53;6045955;23;20017;-95
2023/01/23 06:20:11;;;;;;;6.70;2.80;;;;;;;0.26;100.00;100695.41;6020768;23;20010;-92
2023/01/23 06:22:39;;;;;;;2.42;2.25;;;;;;;0.08;100.00;100683.25;6067614;23;20014;-92
2023/01/23 06:25:09;;;;;;;1.83;0.95;;;;;;;0.32;100.00;100710.38;6044552;23;20038;-94
2023/01/23 06:27:35;;;;;;;0.85;0.85;;;;;;;0.34;100.00;100713.53;6044572;23;20085;-92
2023/01/23 06:30:04;;;;;;;4.55;3.80;;;;;;;0.27;100.00;100718.81;6020892;23;20401;-93
2023/01/23 06:32:34;;;;;;;3.65;3.22;;;;;;;0.28;100.00;100720.41;6022184;23;20399;-93
2023/01/23 06:35:01;;;;;;;3.88;2.78;;;;;;;0.26;100.00;100718.03;6020777;23;20014;-93
2023/01/23 06:37:28;;;;;;;1.33;1.27;;;;;;;0.24;100.00;100724.97;6044757;23;20014;-93
2023/01/23 06:39:53;;;;;;;0.55;0.55;;;;;;;0.22;100.00;100716.34;6094203;23;20049;-93
2023/01/23 06:42:19;;;;;;;5.25;4.53;;;;;;;0.21;100.00;100714.75;6069036;23;20006;-92
2023/01/23 06:44:47;;;;;;;1.80;1.70;;;;;;;0.24;100.00;100730.44;6022066;23;20443;-94
2023/01/23 06:47:14;;;;;;;1.80;1.70;;;;;;;0.12;100.00;100704.03;6021282;23;20093;-92
2023/01/23 06:49:42;;;;;;;5.30;3.33;;;;;;;0.24;100.00;100719.53;6044858;23;20400;-93
2023/01/23 06:52:08;;;;;;;3.17;2.97;;;;;;;0.26;100.00;100714.50;6069118;23;19998;-93
2023/01/23 06:54:34;;;;;;;18.27;4.22;;;;;;;0.31;100.00;100730.63;6070315;23;20011;-93
2023/01/23 06:57:03;;;;;;;0.60;0.60;;;;;;;0.22;100.00;100727.25;6046166;23;20010;-93
2023/01/23 06:59:29;;;;;;;6.78;3.47;;;;;;;0.29;100.00;100738.34;6044656;23;20101;-92
2023/01/23 07:01:56;;;;;;;3.60;2.28;;;;;;;0.26;100.00;100744.50;6046181;23;20014;-93
2023/01/23 07:04:32;;;;;;;2.20;2.00;;;;;;;0.34;100.00;100768.09;6024700;23;20010;-93
2023/01/23 07:06:58;;;;;;;1.05;0.95;;;;;;;0.32;100.00;100768.47;6045030;23;20022;-94
2023/01/23 07:09:24;;;;;;;2.10;1.35;;;;;;;0.27;100.00;100757.81;6021445;23;20014;-94
2023/01/23 07:11:59;;;;;;;1.42;1.33;;;;;;;0.31;100.00;100752.44;6047258;23;20026;-94
2023/01/23 07:14:27;;;;;;;2.22;2.05;;;;;;;0.25;100.00;100760.09;6022180;23;20391;-93
2023/01/23 07:16:55;;;;;;;3.22;2.92;;;;;;;0.34;100.00;100774.38;6022685;23;20030;-93
2023/01/23 07:19:20;;;;;;;1.52;1.42;;;;;;;0.14;100.00;100750.03;6042957;23;20015;-94
2023/01/23 07:21:49;;;;;;;4.75;3.08;;;;;;;0.22;100.00;100760.00;6044552;23;20025;-93
2023/01/23 07:24:15;;;;;;;2.13;2.00;;;;;;;0.19;100.00;100745.13;6041677;23;20455;-94
2023/01/23 07:26:41;;;;;;;0.63;0.63;;;;;;;0.34;100.00;100770.84;6044119;23;20046;-94
2023/01/23 07:29:07;;;;;;;3.47;3.28;;;;;;;0.24;100.00;100768.63;6069186;23;20010;-94
2023/01/23 07:31:34;;;;;;;3.25;2.50;;;;;;;0.27;100.00;100773.38;6068593;23;20046;-92
2023/01/23 07:34:00;;;;;;;2.97;2.78;;;;;;;0.28;100.00;100778.50;6044079;23;20006;-94
2023/01/23 07:36:27;;;;;;;2.80;2.63;;;;;;;0.34;100.00;100774.38;6045198;23;20105;-93
2023/01/23 07:38:53;;;;;;;4.75;3.63;;;;;;;0.35;100.00;100797.00;6066574;23;20019;-93
2023/01/23 07:41:19;;;;;;;4.15;3.42;;;;;;;0.36;100.00;100799.38;6044242;23;20396;-94
2023/01/23 07:43:44;;;;;;;8.07;4.32;;;;;;;0.34;100.00;100806.31;6043817;23;20014;-94
2023/01/23 07:46:10;;;;;;;5.78;3.35;;;;;;;0.18;100.00;100783.66;6021007;23;20451;-93
2023/01/23 07:48:36;;;;;;;2.13;1.98;;;;;;;0.27;100.00;100787.03;6045070;23;20018;-93
2023/01/23 07:51:03;;;;;;;2.28;2.17;;;;;;;0.23;100.00;100811.50;6043836;23;20037;-92
2023/01/23 07:53:34;;;;;;;2.85;2.20;;;;;;;0.19;100.00;100821.53;6043851;23;20093;-92
2023/01/23 07:56:04;;;;;;;2.83;2.63;;;;;;;0.32;100.00;100863.19;6068615;23;20042;-93
2023/01/23 07:58:29;;;;;;;1.38;1.30;;;;;;;0.29;100.00;100852.94;6043044;23;20518;-93
2023/01/23 08:00:55;;;;;;;4.60;3.55;;;;;;;0.26;100.00;100859.13;6066399;23;20485;-93
2023/01/23 08:03:20;;;;;;;0.60;0.60;;;;;;;0.12;100.00;100854.06;6021309;23;20015;-94
2023/01/23 08:05:49;;;;;;;3.67;3.40;;;;;;;0.34;100.00;100888.19;6042241;23;20021;-94
2023/01/23 08:08:15;;;;;;;4.40;3.33;;;;;;;0.22;100.00;100860.94;6043851;23;20023;-93
2023/01/23 08:10:41;;;;;;;0.73;0.73;;;;;;;0.27;100.00;100841.59;6043169;23;20045;-93
2023/01/23 08:13:06;;;;;;;5.63;3.05;;;;;;;0.32;100.00;100846.81;6043071;23;20029;-94
2023/01/23 08:15:32;;;;;;;5.15;4.15;;;;;;;0.25;100.00;100824.78;6020105;23;20029;-94
2023/01/23 08:17:58;;;;;;;6.88;2.42;;;;;;;0.30;100.00;100816.34;6043032;23;20011;-95
2023/01/23 08:20:23;;;;;;;3.03;2.83;;;;;;;0.25;100.00;100819.31;6042915;23;20038;-93
2023/01/23 08:22:49;;;;;;;1.38;1.33;;;;;;;0.45;100.00;100846.38;6042371;23;20378;-93
2023/01/23 08:25:15;;;;;;;1.13;1.08;;;;;;;0.41;100.00;100839.25;6043946;23;20011;-94
2023/01/23 08:27:40;;;;;;;3.47;3.20;;;;;;;0.44;100.00;100833.13;6044263;23;20454;-94
2023/01/23 08:30:06;;;;;;;2.10;1.63;;;;;;;0.42;100.00;100819.81;6066094;23;20068;-94
2023/01/23 08:32:34;;;;;;;1.65;1.55;;;;;;;0.47;100.00;100813.28;6044143;23;20002;-95
2023/01/23 08:35:01;;;;;;;2.10;1.90;;;;;;;0.47;100.00;100810.56;6068169;23;20443;-93
2023/01/23 08:37:27;;;;;;;2.85;2.05;;;;;;;0.43;100.00;100798.75;6020168;23;20045;-94
2023/01/23 08:39:53;;;;;;;1.48;1.38;;;;;;;0.51;100.00;100816.91;6020639;23;20018;-94
2023/01/23 08:42:18;;;;;;;3.78;3.58;;;;;;;0.44;100.00;100809.34;6044004;23;20066;-94
2023/01/23 08:44:44;;;;;;;2.55;2.03;;;;;;;0.50;100.00;100825.44;6043512;23;20014;-91
2023/01/23 08:47:09;;;;;;;2.60;2.45;;;;;;;0.60;100.00;100836.66;6017782;23;20030;-94
2023/01/23 08:49:35;;;;;;;3.55;3.25;;;;;;;0.44;100.00;100827.66;6043704;23;20023;-94
2023/01/23 08:52:03;;;;;;;3.92;3.38;;;;;;;0.47;100.00;100832.41;6041974;23;20006;-94
2023/01/23 08:54:29;;;;;;;3.83;3.33;;;;;;;0.36;100.00;100831.34;6020581;23;20116;-94
2023/01/23 08:56:55;;;;;;;6.15;5.07;;;;;;;0.55;100.00;100864.22;6042961;23;20498;-94
2023/01/23 08:59:21;;;;;;;4.22;3.15;;;;;;;0.51;100.00;100854.34;6019273;23;20014;-94
2023/01/23 09:01:46;;;;;;;5.93;4.75;;;;;;;0.49;100.00;100851.94;6042527;23;20022;-95
2023/01/23 09:04:12;;;;;;;2.55;2.42;;;;;;;0.49;100.00;100848.44;6019840;23;20438;-93
2023/01/23 09:06:38;;;;;;;5.57;3.95;;;;;;;0.49;100.00;100857.41;6041541;23;20022;-94
2023/01/23 09:09:04;;;;;;;7.05;2.47;;;;;;;0.55;100.00;100855.22;6018679;23;20085;-93
2023/01/23 09:11:30;;;;;;;3.33;3.03;;;;;;;0.33;100.00;100810.97;6067709;23;20021;-92
2023/01/23 09:13:55;;;;;;;1.05;1.05;;;;;;;0.44;100.00;100830.38;6066459;23;20058;-94
2023/01/23 09:16:21;;;;;;;2.83;1.80;;;;;;;0.54;100.00;100826.31;6042414;23;20014;-94
2023/01/23 09:18:47;;;;;;;3.60;2.55;;;;;;;0.56;100.00;100833.03;6065868;23;20015;-94
2023/01/23 09:21:15;;;;;;;3.22;3.03;;;;;;;0.51;100.00;100814.19;6065983;23;20339;-95
2023/01/23 09:23:41;;;;;;;1.20;1.10;;;;;;;0.51;100.00;100811.47;6041918;23;20093;-92
2023/01/23 09:26:08;;;;;;;4.25;3.85;;;;;;;0.62;100.00;100815.25;6017424;23;20026;-94
2023/01/23 09:28:35;;;;;;;6.18;4.85;;;;;;;0.62;100.00;100817.97;6018711;23;20403;-93
2023/01/23 09:31:02;;;;;;;0.60;0.60;;;;;;;0.55;100.00;100806.88;6041650;23;20383;-94
2023/01/23 09:33:28;;;;;;;2.28;2.03;;;;;;;0.67;100.00;100811.47;6041839;23;20053;-93
2023/01/23 09:35:53;;;;;;;2.70;1.98;;;;;;;0.72;100.00;100817.47;6066801;23;20034;-95
2023/01/23 09:38:19;;;;;;;3.50;3.20;;;;;;;0.72;100.00;100822.94;6066246;23;20049;-93
2023/01/23 09:40:48;;;;;;;2.70;2.08;;;;;;;0.72;100.00;100812.00;6066066;23;20006;-93
2023/01/23 09:43:19;;;;;;;4.70;3.17;;;;;;;0.63;100.00;100803.19;6019390;23;20038;-93
2023/01/23 09:45:54;;;;;;;11.25;2.25;;;;;;;0.61;100.00;100800.00;6065496;23;20058;-93
2023/01/23 09:48:23;;;;;;;1.13;1.08;;;;;;;0.73;100.00;100829.97;6064816;23;20026;-93
2023/01/23 09:50:55;;;;;;;3.17;2.97;;;;;;;0.58;100.00;100808.09;6065175;23;20014;-93
2023/01/23 09:53:23;;;;;;;1.90;1.80;;;;;;;0.76;100.00;100840.19;6041835;23;20374;-93
2023/01/23 09:55:59;;;;;;;1.85;1.45;;;;;;;0.78;100.00;100832.44;6018550;23;20007;-93
2023/01/23 09:58:36;;;;;;;2.35;1.55;;;;;;;0.79;100.00;100839.50;6046441;23;20548;-92
2023/01/23 10:01:02;;;;;;;1.88;1.75;;;;;;;0.74;100.00;100837.00;6067154;23;20014;-93
2023/01/23 10:03:30;;;;;;;19.08;3.80;;;;;;;0.83;100.00;100856.75;6018531;23;20021;-93
2023/01/23 10:06:07;;;;;;;3.40;3.08;;;;;;;0.80;100.00;100841.09;6066169;23;20022;-93
2023/01/23 10:08:40;;;;;;;1.60;1.27;;;;;;;0.63;100.00;100807.84;6019199;23;20117;-93
2023/01/23 10:11:16;;;;;;;2.83;1.85;;;;;;;0.92;100.00;100846.47;6066398;23;20026;-93
2023/01/23 10:14:01;;;;;;;3.22;2.97;;;;;;;0.96;100.00;100843.00;6041804;23;20022;-93
2023/01/23 10:16:36;;;;;;;1.33;1.23;;;;;;;0.97;100.00;100844.59;6091248;23;20018;-94
2023/01/23 10:19:28;;;;;;;2.65;2.53;;;;;;;0.96;100.00;100837.56;6066447;23;20045;-93
2023/01/23 10:22:15;;;;;;;1.73;1.63;;;;;;;0.98;100.00;100830.56;6042560;23;20022;-94
2023/01/23 10:24:52;;;;;;;1.50;1.40;;;;;;;0.87;100.00;100803.00;6041986;23;20057;-94
2023/01/23 10:27:21;;;;;;;3.13;2.92;;;;;;;0.99;100.00;100828.63;6018685;23;20102;-94
2023/01/23 10:29:57;;;;;;;1.65;1.55;;;;;;;0.96;100.00;100821.16;6040412;23;20430;-94
2023/01/23 10:32:26;;;;;;;1.85;1.75;;;;;;;0.88;100.00;100815.53;6065885;23;20041;-93
2023/01/23 10:35:05;;;;;;;2.17;1.98;;;;;;;1.00;100.00;100822.84;6066023;23;20018;-95
2023/01/23 10:37:49;;;;;;;2.58;2.38;;;;;;;0.99;100.00;100828.63;6065163;23;20026;-92
2023/01/23 10:43:03;;;;;;;1.60;1.50;;;;;;;0.99;100.00;100834.91;6045630;23;20456;-93
2023/01/23 10:45:29;;;;;;;1.05;1.05;;;;;;;0.97;100.00;100828.22;6065626;23;20014;-92
2023/01/23 10:47:54;;;;;;;1.90;1.80;;;;;;;0.99;100.00;100825.91;6041353;23;20482;-92
2023/01/23 10:50:35;;;;;;;1.05;1.05;;;;;;;1.07;100.00;100833.13;6041649;23;20438;-92
2023/01/23 10:53:17;;;;;;;2.65;2.47;;;;;;;1.11;100.00;100839.47;6041470;23;20109;-93
2023/01/23 10:55:44;;;;;;;1.27;1.17;;;;;;;1.12;100.00;100841.88;6041178;23;20443;-92
2023/01/23 10:58:24;;;;;;;3.25;2.65;;;;;;;1.14;100.00;100834.09;6065288;23;20015;-92
2023/01/23 11:00:50;;;;;;;1.80;1.70;;;;;;;1.13;100.00;100820.81;6063135;23;20018;-92
2023/01/23 11:03:31;;;;;;;1.48;1.38;;;;;;;1.20;100.00;100807.31;6065327;23;20010;-92
2023/01/23 11:06:07;;;;;;;1.95;1.75;;;;;;;1.20;100.00;100808.09;6039859;23;20033;-92
2023/01/23 11:08:38;;;;;;;2.08;1.75;;;;;;;1.17;100.00;100791.63;6042447;23;20073;-92
2023/01/23 11:11:15;;;;;;;5.80;4.03;;;;;;;1.29;100.00;100805.19;6041136;23;20035;-93
2023/01/23 11:13:42;;;;;;;0.80;0.80;;;;;;;1.32;100.00;100805.25;6091466;23;20038;-93
2023/01/23 11:16:21;;;;;;;4.22;2.63;;;;;;;1.34;100.00;100797.47;6064256;23;20015;-92
2023/01/23 11:18:58;;;;;;;1.58;0.95;;;;;;;1.40;100.00;100819.88;6064982;23;20022;-93
2023/01/23 11:21:29;;;;;;;1.58;1.45;;;;;;;1.38;100.00;100794.81;6016743;23;20018;-92
2023/01/23 11:24:08;;;;;;;1.27;1.20;;;;;;;1.42;100.00;100806.63;6044411;23;20017;-92
2023/01/23 11:26:35;;;;;;;2.65;2.20;;;;;;;1.42;100.00;100786.72;6091372;23;20355;-90
2023/01/23 11:29:02;;;;;;;3.20;2.03;;;;;;;1.33;100.00;100771.31;6043031;23;20021;-94
2023/01/23 11:31:28;;;;;;;0.77;0.77;;;;;;;1.46;100.00;100793.81;6090086;23;20018;-95
2023/01/23 11:34:03;;;;;;;1.45;1.45;;;;;;;1.54;100.00;100800.25;6066549;23;20033;-94
2023/01/23 11:36:47;;;;;;;2.30;2.03;;;;;;;1.59;100.00;100799.97;6042520;23;20354;-94
2023/01/23 11:39:47;;;;;;;3.05;2.55;;;;;;;1.62;100.00;100800.03;6066249;23;20015;-94